createdAt,value
2017-09-16T00:00:05.201Z,11.1
2017-09-16T00:05:02.869Z,11
2017-09-16T00:10:03.050Z,11.1
2017-09-16T00:15:02.723Z,11.1
2017-09-16T00:20:05.048Z,11.1
2017-09-16T00:25:02.734Z,11.1
2017-09-16T00:30:02.438Z,11
2017-09-16T00:35:03.151Z,11
2017-09-16T00:40:08.360Z,10.8
2017-09-16T00:45:03.079Z,10.8
2017-09-16T00:50:17.992Z,10.7
2017-09-16T00:55:10.347Z,10.7
2017-09-16T01:00:05.570Z,10.7
2017-09-16T01:05:05.800Z,10.7
2017-09-16T01:10:02.968Z,10.7
2017-09-16T01:15:02.683Z,10.7
2017-09-16T01:20:10.063Z,10.7
2017-09-16T01:25:02.749Z,10.7
2017-09-16T01:30:04.979Z,10.6
2017-09-16T01:35:07.756Z,10.5
2017-09-16T01:40:05.507Z,10.5
2017-09-16T01:45:05.764Z,10.5
2017-09-16T01:50:04.981Z,10.4
2017-09-16T01:55:10.307Z,10.3
2017-09-16T02:00:05.510Z,10.3
2017-09-16T02:05:05.788Z,10.3
2017-09-16T02:10:05.500Z,10.2
2017-09-16T02:15:03.200Z,10.2
2017-09-16T02:20:05.529Z,10.1
2017-09-16T02:25:05.790Z,10.1
2017-09-16T02:30:05.020Z,10
2017-09-16T02:35:05.294Z,9.9
2017-09-16T02:40:04.937Z,9.8
2017-09-16T02:45:05.181Z,9.7
2017-09-16T02:50:05.370Z,9.7
2017-09-16T02:55:05.607Z,9.6
2017-09-16T03:00:07.388Z,9.6
2017-09-16T03:05:05.601Z,9.5
2017-09-16T03:10:07.858Z,9.5
2017-09-16T03:15:07.898Z,9.5
2017-09-16T03:20:07.777Z,9.4
2017-09-16T03:25:02.478Z,9.4
2017-09-16T03:30:05.742Z,9.3
2017-09-16T03:35:02.482Z,9.3
2017-09-16T03:40:12.805Z,9.2
2017-09-16T03:45:05.021Z,9.1
2017-09-16T03:50:02.741Z,9.1
2017-09-16T03:55:04.998Z,9
2017-09-16T04:00:02.673Z,9
2017-09-16T04:05:02.347Z,9
2017-09-16T04:10:05.008Z,8.9
2017-09-16T04:15:07.818Z,8.9
2017-09-16T04:20:07.637Z,8.8
2017-09-16T04:25:03.325Z,8.8
2017-09-16T04:30:03.022Z,8.8
2017-09-16T04:35:07.807Z,8.8
2017-09-16T04:40:02.972Z,8.8
2017-09-16T04:45:02.680Z,8.8
2017-09-16T04:50:02.412Z,8.8
2017-09-16T04:55:03.142Z,8.8
2017-09-16T05:00:05.359Z,8.7
2017-09-16T05:05:03.072Z,8.7
2017-09-16T05:10:08.306Z,8.7
2017-09-16T05:15:05.561Z,8.6
2017-09-16T05:20:07.421Z,8.6
2017-09-16T05:25:05.780Z,8.6
2017-09-16T05:30:02.710Z,8.6
2017-09-16T05:35:04.926Z,8.7
2017-09-16T05:40:18.274Z,8.8
2017-09-16T05:45:02.950Z,8.8
2017-09-16T05:50:05.230Z,9
2017-09-16T05:55:10.533Z,9
2017-09-16T06:00:03.241Z,9
2017-09-16T06:05:05.508Z,9.1
2017-09-16T06:10:02.675Z,9.1
2017-09-16T06:15:04.917Z,9.2
2017-09-16T06:20:07.763Z,9.3
2017-09-16T06:25:07.665Z,9.4
2017-09-16T06:30:02.383Z,9.4
2017-09-16T06:35:10.660Z,9.5
2017-09-16T06:40:05.316Z,9.6
2017-09-16T06:45:05.531Z,9.7
2017-09-16T06:50:05.773Z,9.7
2017-09-16T06:55:02.485Z,9.7
2017-09-16T07:00:05.719Z,9.9
2017-09-16T07:05:09.999Z,10
2017-09-16T07:10:05.722Z,10.1
2017-09-16T07:15:02.434Z,10.1
2017-09-16T07:20:10.797Z,10.3
2017-09-16T07:25:05.020Z,10.4
2017-09-16T07:30:05.265Z,10.5
2017-09-16T07:35:13.094Z,10.7
2017-09-16T07:40:05.791Z,10.8
2017-09-16T07:45:02.512Z,10.8
2017-09-16T07:50:03.244Z,10.9
2017-09-16T07:55:02.954Z,11
2017-09-16T08:00:02.670Z,11.1
2017-09-16T08:05:12.484Z,11.5
2017-09-16T08:10:02.592Z,11.5
2017-09-16T08:15:10.887Z,11.8
2017-09-16T08:20:15.298Z,11.9
2017-09-16T08:25:03.026Z,11.9
2017-09-16T08:30:07.809Z,12.2
2017-09-16T08:35:02.492Z,12.2
2017-09-16T08:40:02.666Z,12.4
2017-09-16T08:45:09.965Z,12.8
2017-09-16T08:50:02.705Z,12.8
2017-09-16T08:55:02.370Z,13
2017-09-16T09:00:03.102Z,13.2
2017-09-16T09:05:05.338Z,13.5
2017-09-16T09:10:05.013Z,13.6
2017-09-16T09:15:02.724Z,13.6
2017-09-16T09:20:07.596Z,13.8
2017-09-16T09:25:03.293Z,13.8
2017-09-16T09:30:03.002Z,13.9
2017-09-16T09:35:05.236Z,14.4
2017-09-16T09:40:02.361Z,14.3
2017-09-16T09:45:03.040Z,14.6
2017-09-16T09:50:02.746Z,14.9
2017-09-16T09:55:04.999Z,15.3
2017-09-16T10:00:02.671Z,15.2
2017-09-16T10:05:02.378Z,15.4
2017-09-16T10:10:07.578Z,15.4
2017-09-16T10:15:05.801Z,15.4
2017-09-16T10:20:02.551Z,15.3
2017-09-16T10:25:03.275Z,15.5
2017-09-16T10:30:03.002Z,15.7
2017-09-16T10:35:07.758Z,15.9
2017-09-16T10:40:02.881Z,15.9
2017-09-16T10:45:02.592Z,16
2017-09-16T10:50:03.313Z,16.2
2017-09-16T10:55:08.069Z,16.3
2017-09-16T11:00:02.780Z,16.3
2017-09-16T11:05:07.547Z,16.6
2017-09-16T11:10:02.693Z,16.7
2017-09-16T11:15:02.403Z,16.8
2017-09-16T11:20:03.190Z,16.9
2017-09-16T11:25:02.944Z,17
2017-09-16T11:30:05.191Z,16.8
2017-09-16T11:35:07.960Z,16.7
2017-09-16T11:40:05.662Z,16.8
2017-09-16T11:45:02.345Z,16.8
2017-09-16T11:50:18.232Z,16.7
2017-09-16T11:55:10.540Z,16.7
2017-09-16T12:00:08.336Z,16.8
2017-09-16T12:05:18.222Z,16.9
2017-09-16T12:10:04.882Z,16.9
2017-09-16T12:15:02.608Z,16.9
2017-09-16T12:20:02.392Z,16.9
2017-09-16T12:25:05.864Z,17
2017-09-16T12:30:02.530Z,17
2017-09-16T12:35:03.292Z,16.9
2017-09-16T12:40:04.959Z,17.1
2017-09-16T12:45:05.210Z,17.1
2017-09-16T12:50:02.882Z,17.1
2017-09-16T12:55:07.648Z,17.5
2017-09-16T13:00:09.948Z,18.2
2017-09-16T13:05:02.691Z,18.2
2017-09-16T13:10:05.404Z,18.2
2017-09-16T13:15:18.304Z,18.2
2017-09-16T13:20:03.082Z,18.2
2017-09-16T13:25:08.038Z,18.1
2017-09-16T13:30:10.316Z,18.1
2017-09-16T13:35:03.064Z,18.1
2017-09-16T13:40:03.198Z,18
2017-09-16T13:45:02.893Z,17.8
2017-09-16T13:50:07.689Z,18
2017-09-16T13:55:22.635Z,18
2017-09-16T14:00:02.373Z,18
2017-09-16T14:05:03.082Z,18.1
2017-09-16T14:10:10.862Z,18.4
2017-09-16T14:15:02.540Z,18.4
2017-09-16T14:20:05.829Z,18.5
2017-09-16T14:25:07.578Z,18.4
2017-09-16T14:30:05.806Z,18.4
2017-09-16T14:35:05.022Z,18.9
2017-09-16T14:40:03.180Z,18.9
2017-09-16T14:45:05.428Z,19.8
2017-09-16T14:50:08.180Z,19.8
2017-09-16T14:55:02.911Z,19.8
2017-09-16T15:00:05.163Z,19.2
2017-09-16T15:05:02.834Z,19.2
2017-09-16T15:10:03.033Z,18.9
2017-09-16T15:15:05.267Z,20.1
2017-09-16T15:20:08.111Z,20.5
2017-09-16T15:25:02.792Z,20.4
2017-09-16T15:30:02.511Z,20.7
2017-09-16T15:35:03.231Z,21
2017-09-16T15:40:07.505Z,21.2
2017-09-16T15:45:10.840Z,21.1
2017-09-16T15:50:02.562Z,21.1
2017-09-16T15:55:10.036Z,20.3
2017-09-16T16:00:05.290Z,19.9
2017-09-16T16:05:03.018Z,19.9
2017-09-16T16:10:03.139Z,19.7
2017-09-16T16:15:05.412Z,19.1
2017-09-16T16:20:05.723Z,19
2017-09-16T16:25:04.927Z,18.7
2017-09-16T16:30:02.655Z,18.7
2017-09-16T16:35:07.458Z,18.1
2017-09-16T16:40:05.159Z,17.9
2017-09-16T16:45:05.415Z,17.8
2017-09-16T16:50:03.082Z,17.8
2017-09-16T16:55:02.802Z,17.7
2017-09-16T17:00:02.519Z,17.7
2017-09-16T17:05:05.799Z,17.6
2017-09-16T17:10:02.960Z,17.6
2017-09-16T17:15:02.680Z,17.5
2017-09-16T17:20:02.491Z,17.4
2017-09-16T17:25:03.275Z,17.3
2017-09-16T17:30:03.013Z,17.3
2017-09-16T17:35:02.751Z,17.1
2017-09-16T17:40:05.420Z,17
2017-09-16T17:45:05.689Z,16.9
2017-09-16T17:50:04.935Z,16.8
2017-09-16T17:55:02.660Z,16.8
2017-09-16T18:00:04.908Z,16.6
2017-09-16T18:05:02.599Z,16.6
2017-09-16T18:10:05.359Z,16.3
2017-09-16T18:15:05.672Z,16.2
2017-09-16T18:20:02.470Z,16.2
2017-09-16T18:25:05.716Z,15.9
2017-09-16T18:30:04.950Z,15.7
2017-09-16T18:35:02.660Z,15.7
2017-09-16T18:40:02.860Z,15.6
2017-09-16T18:45:20.314Z,15.3
2017-09-16T18:50:03.007Z,15.3
2017-09-16T18:55:02.726Z,15.2
2017-09-16T19:00:05.144Z,15
2017-09-16T19:05:10.452Z,14.9
2017-09-16T19:10:02.550Z,14.9
2017-09-16T19:15:03.261Z,14.8
2017-09-16T19:20:05.559Z,14.7
2017-09-16T19:25:03.298Z,14.7
2017-09-16T19:30:05.561Z,14.6
2017-09-16T19:35:13.399Z,14.6
2017-09-16T19:40:02.538Z,14.6
2017-09-16T19:45:05.777Z,14.6
2017-09-16T19:50:07.563Z,14.6
2017-09-16T19:55:13.390Z,14.6
2017-09-16T20:00:08.167Z,14.5
2017-09-16T20:05:02.880Z,14.6
2017-09-16T20:10:05.536Z,14.5
2017-09-16T20:15:04.985Z,14.5
2017-09-16T20:20:10.363Z,14.4
2017-09-16T20:25:33.393Z,14.3
2017-09-16T20:30:05.611Z,14.2
2017-09-16T20:35:07.682Z,14.1
2017-09-16T20:40:05.699Z,14.1
2017-09-16T20:45:02.364Z,14.1
2017-09-16T20:50:20.765Z,13.9
2017-09-16T20:55:02.819Z,13.9
2017-09-16T21:00:02.568Z,13.8
2017-09-16T21:05:03.279Z,13.7
2017-09-16T21:10:02.439Z,13.6
2017-09-16T21:15:03.148Z,13.6
2017-09-16T21:20:02.890Z,13.5
2017-09-16T21:25:07.685Z,13.3
2017-09-16T21:30:04.909Z,13.2
2017-09-16T21:35:05.137Z,13.1
2017-09-16T21:40:03.303Z,13.1
2017-09-16T21:45:05.547Z,12.9
2017-09-16T21:50:08.316Z,12.7
2017-09-16T21:55:05.559Z,12.7
2017-09-16T22:00:03.256Z,12.7
2017-09-16T22:05:02.953Z,12.6
2017-09-16T22:10:03.271Z,12.6
2017-09-16T22:15:02.979Z,12.5
2017-09-16T22:20:02.749Z,12.4
2017-09-16T22:25:02.470Z,12.3
2017-09-16T22:30:03.185Z,12.3
2017-09-16T22:35:07.939Z,12.1
2017-09-16T22:40:05.608Z,12
2017-09-16T22:45:02.317Z,12
2017-09-16T22:50:03.057Z,11.9
2017-09-16T22:55:12.925Z,11.8
2017-09-16T23:00:02.656Z,11.8
2017-09-16T23:05:02.377Z,11.8
2017-09-16T23:10:10.173Z,11.6
2017-09-16T23:15:02.871Z,11.6
2017-09-16T23:20:02.661Z,11.5
2017-09-16T23:25:02.356Z,11.4
2017-09-16T23:30:03.091Z,11.4
2017-09-16T23:35:07.867Z,11.4
2017-09-16T23:40:03.009Z,11.3
2017-09-16T23:45:05.250Z,11.2
2017-09-16T23:50:07.997Z,11.1
2017-09-16T23:55:05.211Z,11
